sensor_id;sensor_type;location;lat;lon;timestamp;P1;durP1;ratioP1;P2;durP2;ratioP2
32826;SDS011;51059;42.058;27.986;2023-07-13T00:01:45;19.75;;;15.32;;
32826;SDS011;51059;42.058;27.986;2023-07-13T00:04:13;16.73;;;15.15;;
32826;SDS011;51059;42.058;27.986;2023-07-13T00:06:38;16.58;;;14.98;;
32826;SDS011;51059;42.058;27.986;2023-07-13T00:09:04;17.27;;;15.30;;
32826;SDS011;51059;42.058;27.986;2023-07-13T00:11:29;16.00;;;14.40;;
32826;SDS011;51059;42.058;27.986;2023-07-13T00:13:55;15.85;;;14.35;;
32826;SDS011;51059;42.058;27.986;2023-07-13T00:16:20;16.17;;;14.48;;
32826;SDS011;51059;42.058;27.986;2023-07-13T00:18:46;18.33;;;13.98;;
32826;SDS011;51059;42.058;27.986;2023-07-13T00:21:12;15.30;;;13.65;;
32826;SDS011;51059;42.058;27.986;2023-07-13T00:23:39;16.90;;;14.35;;
32826;SDS011;51059;42.058;27.986;2023-07-13T00:26:05;15.73;;;13.88;;
32826;SDS011;51059;42.058;27.986;2023-07-13T00:28:31;16.73;;;14.35;;
32826;SDS011;51059;42.058;27.986;2023-07-13T00:30:57;15.52;;;13.95;;
32826;SDS011;51059;42.058;27.986;2023-07-13T00:33:23;17.08;;;15.43;;
32826;SDS011;51059;42.058;27.986;2023-07-13T00:35:48;19.30;;;17.08;;
32826;SDS011;51059;42.058;27.986;2023-07-13T00:38:15;18.70;;;15.68;;
32826;SDS011;51059;42.058;27.986;2023-07-13T00:40:40;18.13;;;15.35;;
32826;SDS011;51059;42.058;27.986;2023-07-13T00:43:39;15.10;;;13.60;;
32826;SDS011;51059;42.058;27.986;2023-07-13T00:48:31;16.55;;;14.85;;
32826;SDS011;51059;42.058;27.986;2023-07-13T00:50:58;16.40;;;14.43;;
32826;SDS011;51059;42.058;27.986;2023-07-13T00:53:26;20.37;;;15.20;;
32826;SDS011;51059;42.058;27.986;2023-07-13T00:55:53;15.95;;;14.15;;
32826;SDS011;51059;42.058;27.986;2023-07-13T00:58:20;17.40;;;15.50;;
32826;SDS011;51059;42.058;27.986;2023-07-13T01:00:46;16.27;;;14.63;;
32826;SDS011;51059;42.058;27.986;2023-07-13T01:03:12;16.83;;;15.13;;
32826;SDS011;51059;42.058;27.986;2023-07-13T01:05:37;17.50;;;14.55;;
32826;SDS011;51059;42.058;27.986;2023-07-13T01:08:04;16.55;;;14.65;;
32826;SDS011;51059;42.058;27.986;2023-07-13T01:10:31;16.60;;;14.85;;
32826;SDS011;51059;42.058;27.986;2023-07-13T01:13:07;17.88;;;15.75;;
32826;SDS011;51059;42.058;27.986;2023-07-13T01:15:41;17.40;;;14.93;;
32826;SDS011;51059;42.058;27.986;2023-07-13T01:18:08;17.30;;;15.47;;
32826;SDS011;51059;42.058;27.986;2023-07-13T01:20:34;18.77;;;16.70;;
32826;SDS011;51059;42.058;27.986;2023-07-13T01:23:03;21.52;;;16.25;;
32826;SDS011;51059;42.058;27.986;2023-07-13T01:25:29;18.42;;;15.93;;
32826;SDS011;51059;42.058;27.986;2023-07-13T01:27:55;20.42;;;18.00;;
32826;SDS011;51059;42.058;27.986;2023-07-13T01:30:20;19.10;;;17.10;;
32826;SDS011;51059;42.058;27.986;2023-07-13T01:32:46;18.07;;;15.87;;
32826;SDS011;51059;42.058;27.986;2023-07-13T01:35:12;18.25;;;16.45;;
32826;SDS011;51059;42.058;27.986;2023-07-13T01:37:39;22.10;;;17.05;;
32826;SDS011;51059;42.058;27.986;2023-07-13T01:40:05;19.27;;;15.57;;
32826;SDS011;51059;42.058;27.986;2023-07-13T01:42:30;18.93;;;16.37;;
32826;SDS011;51059;42.058;27.986;2023-07-13T01:44:56;18.25;;;15.73;;
32826;SDS011;51059;42.058;27.986;2023-07-13T01:47:22;18.93;;;17.13;;
32826;SDS011;51059;42.058;27.986;2023-07-13T01:49:48;18.53;;;16.63;;
32826;SDS011;51059;42.058;27.986;2023-07-13T01:52:14;17.77;;;15.47;;
32826;SDS011;51059;42.058;27.986;2023-07-13T01:54:39;19.70;;;16.13;;
32826;SDS011;51059;42.058;27.986;2023-07-13T01:57:07;23.10;;;16.63;;
32826;SDS011;51059;42.058;27.986;2023-07-13T01:59:33;18.38;;;15.77;;
32826;SDS011;51059;42.058;27.986;2023-07-13T02:01:59;23.75;;;21.38;;
32826;SDS011;51059;42.058;27.986;2023-07-13T02:04:25;19.88;;;17.77;;
32826;SDS011;51059;42.058;27.986;2023-07-13T02:06:51;21.17;;;17.43;;
32826;SDS011;51059;42.058;27.986;2023-07-13T02:09:17;17.42;;;14.98;;
32826;SDS011;51059;42.058;27.986;2023-07-13T02:11:43;17.55;;;15.68;;
32826;SDS011;51059;42.058;27.986;2023-07-13T02:14:09;17.38;;;15.35;;
32826;SDS011;51059;42.058;27.986;2023-07-13T02:16:34;21.92;;;17.48;;
32826;SDS011;51059;42.058;27.986;2023-07-13T02:19:00;18.50;;;16.52;;
32826;SDS011;51059;42.058;27.986;2023-07-13T02:21:32;19.70;;;16.23;;
32826;SDS011;51059;42.058;27.986;2023-07-13T02:24:00;18.05;;;16.25;;
32826;SDS011;51059;42.058;27.986;2023-07-13T02:26:26;19.33;;;17.13;;
32826;SDS011;51059;42.058;27.986;2023-07-13T02:28:52;19.17;;;15.87;;
32826;SDS011;51059;42.058;27.986;2023-07-13T02:31:17;17.63;;;15.82;;
32826;SDS011;51059;42.058;27.986;2023-07-13T02:33:43;17.70;;;15.55;;
32826;SDS011;51059;42.058;27.986;2023-07-13T02:36:09;18.52;;;14.98;;
32826;SDS011;51059;42.058;27.986;2023-07-13T02:38:35;19.60;;;15.15;;
32826;SDS011;51059;42.058;27.986;2023-07-13T02:41:04;17.77;;;15.98;;
32826;SDS011;51059;42.058;27.986;2023-07-13T02:43:30;17.45;;;15.45;;
32826;SDS011;51059;42.058;27.986;2023-07-13T02:45:58;16.98;;;14.98;;
32826;SDS011;51059;42.058;27.986;2023-07-13T02:48:29;16.90;;;15.27;;
32826;SDS011;51059;42.058;27.986;2023-07-13T02:50:54;19.00;;;15.20;;
32826;SDS011;51059;42.058;27.986;2023-07-13T02:53:20;17.40;;;15.50;;
32826;SDS011;51059;42.058;27.986;2023-07-13T02:55:46;16.77;;;15.02;;
32826;SDS011;51059;42.058;27.986;2023-07-13T02:58:13;17.80;;;15.83;;
32826;SDS011;51059;42.058;27.986;2023-07-13T03:00:42;17.07;;;15.27;;
32826;SDS011;51059;42.058;27.986;2023-07-13T03:03:09;17.17;;;15.23;;
32826;SDS011;51059;42.058;27.986;2023-07-13T03:05:37;17.63;;;14.67;;
32826;SDS011;51059;42.058;27.986;2023-07-13T03:08:03;17.57;;;14.77;;
32826;SDS011;51059;42.058;27.986;2023-07-13T03:10:29;16.55;;;14.80;;
32826;SDS011;51059;42.058;27.986;2023-07-13T03:12:56;18.07;;;13.97;;
32826;SDS011;51059;42.058;27.986;2023-07-13T03:15:22;15.45;;;13.85;;
32826;SDS011;51059;42.058;27.986;2023-07-13T03:17:47;16.42;;;14.57;;
32826;SDS011;51059;42.058;27.986;2023-07-13T03:20:14;15.80;;;13.53;;
32826;SDS011;51059;42.058;27.986;2023-07-13T03:22:40;17.73;;;13.50;;
32826;SDS011;51059;42.058;27.986;2023-07-13T03:25:06;14.73;;;13.13;;
32826;SDS011;51059;42.058;27.986;2023-07-13T03:27:31;16.13;;;12.30;;
32826;SDS011;51059;42.058;27.986;2023-07-13T03:29:57;13.02;;;11.73;;
32826;SDS011;51059;42.058;27.986;2023-07-13T03:32:22;13.82;;;12.20;;
32826;SDS011;51059;42.058;27.986;2023-07-13T03:34:49;14.88;;;13.18;;
32826;SDS011;51059;42.058;27.986;2023-07-13T03:37:14;23.30;;;17.35;;
32826;SDS011;51059;42.058;27.986;2023-07-13T03:39:40;19.77;;;15.23;;
32826;SDS011;51059;42.058;27.986;2023-07-13T03:42:05;18.55;;;15.60;;
32826;SDS011;51059;42.058;27.986;2023-07-13T03:44:31;15.27;;;13.68;;
32826;SDS011;51059;42.058;27.986;2023-07-13T03:46:57;16.80;;;14.35;;
32826;SDS011;51059;42.058;27.986;2023-07-13T03:49:23;12.95;;;11.55;;
32826;SDS011;51059;42.058;27.986;2023-07-13T03:51:49;15.10;;;12.82;;
32826;SDS011;51059;42.058;27.986;2023-07-13T03:54:15;17.17;;;14.15;;
32826;SDS011;51059;42.058;27.986;2023-07-13T03:56:41;12.63;;;11.40;;
32826;SDS011;51059;42.058;27.986;2023-07-13T03:59:07;14.73;;;13.23;;
32826;SDS011;51059;42.058;27.986;2023-07-13T04:01:33;9.90;;;9.00;;
32826;SDS011;51059;42.058;27.986;2023-07-13T04:03:59;12.50;;;9.48;;
32826;SDS011;51059;42.058;27.986;2023-07-13T04:06:29;11.18;;;8.20;;
32826;SDS011;51059;42.058;27.986;2023-07-13T04:08:56;12.00;;;8.52;;
32826;SDS011;51059;42.058;27.986;2023-07-13T04:11:23;11.07;;;8.05;;
32826;SDS011;51059;42.058;27.986;2023-07-13T04:13:49;9.65;;;8.10;;
32826;SDS011;51059;42.058;27.986;2023-07-13T04:16:15;10.45;;;7.63;;
32826;SDS011;51059;42.058;27.986;2023-07-13T04:18:43;10.30;;;7.60;;
32826;SDS011;51059;42.058;27.986;2023-07-13T04:21:09;10.38;;;9.27;;
32826;SDS011;51059;42.058;27.986;2023-07-13T04:23:36;12.85;;;10.13;;
32826;SDS011;51059;42.058;27.986;2023-07-13T04:26:04;10.75;;;9.52;;
32826;SDS011;51059;42.058;27.986;2023-07-13T04:28:29;10.77;;;9.70;;
32826;SDS011;51059;42.058;27.986;2023-07-13T04:30:55;12.57;;;11.35;;
32826;SDS011;51059;42.058;27.986;2023-07-13T04:33:21;18.80;;;12.43;;
32826;SDS011;51059;42.058;27.986;2023-07-13T04:35:50;11.55;;;8.40;;
32826;SDS011;51059;42.058;27.986;2023-07-13T04:38:20;8.95;;;8.15;;
32826;SDS011;51059;42.058;27.986;2023-07-13T04:40:46;11.32;;;8.90;;
32826;SDS011;51059;42.058;27.986;2023-07-13T04:43:11;8.40;;;7.28;;
32826;SDS011;51059;42.058;27.986;2023-07-13T04:45:37;7.95;;;7.15;;
32826;SDS011;51059;42.058;27.986;2023-07-13T04:48:03;11.40;;;9.35;;
32826;SDS011;51059;42.058;27.986;2023-07-13T04:50:29;9.05;;;7.63;;
32826;SDS011;51059;42.058;27.986;2023-07-13T04:52:55;9.88;;;7.55;;
32826;SDS011;51059;42.058;27.986;2023-07-13T04:55:23;8.70;;;7.90;;
32826;SDS011;51059;42.058;27.986;2023-07-13T04:57:48;11.77;;;7.82;;
32826;SDS011;51059;42.058;27.986;2023-07-13T05:00:14;11.45;;;7.97;;
32826;SDS011;51059;42.058;27.986;2023-07-13T05:02:43;9.57;;;8.63;;
32826;SDS011;51059;42.058;27.986;2023-07-13T05:05:09;12.18;;;8.88;;
32826;SDS011;51059;42.058;27.986;2023-07-13T05:07:35;11.30;;;8.05;;
32826;SDS011;51059;42.058;27.986;2023-07-13T05:10:02;9.35;;;8.38;;
32826;SDS011;51059;42.058;27.986;2023-07-13T05:12:30;9.10;;;7.97;;
32826;SDS011;51059;42.058;27.986;2023-07-13T05:14:56;10.18;;;7.53;;
32826;SDS011;51059;42.058;27.986;2023-07-13T05:17:22;8.00;;;7.20;;
32826;SDS011;51059;42.058;27.986;2023-07-13T05:19:47;8.25;;;7.45;;
32826;SDS011;51059;42.058;27.986;2023-07-13T05:22:13;11.68;;;7.78;;
32826;SDS011;51059;42.058;27.986;2023-07-13T05:24:39;10.20;;;7.35;;
32826;SDS011;51059;42.058;27.986;2023-07-13T05:27:05;10.00;;;7.47;;
32826;SDS011;51059;42.058;27.986;2023-07-13T05:29:31;11.52;;;8.07;;
32826;SDS011;51059;42.058;27.986;2023-07-13T05:31:56;8.80;;;7.90;;
32826;SDS011;51059;42.058;27.986;2023-07-13T05:34:22;9.15;;;7.93;;
32826;SDS011;51059;42.058;27.986;2023-07-13T05:36:48;9.15;;;7.70;;
32826;SDS011;51059;42.058;27.986;2023-07-13T05:39:15;10.43;;;7.93;;
32826;SDS011;51059;42.058;27.986;2023-07-13T05:41:41;8.68;;;7.53;;
32826;SDS011;51059;42.058;27.986;2023-07-13T05:44:07;8.95;;;7.13;;
32826;SDS011;51059;42.058;27.986;2023-07-13T05:46:34;8.93;;;7.72;;
32826;SDS011;51059;42.058;27.986;2023-07-13T05:49:00;11.73;;;7.60;;
32826;SDS011;51059;42.058;27.986;2023-07-13T05:51:25;12.18;;;7.80;;
32826;SDS011;51059;42.058;27.986;2023-07-13T05:53:51;9.43;;;7.18;;
32826;SDS011;51059;42.058;27.986;2023-07-13T05:56:17;9.60;;;7.07;;
32826;SDS011;51059;42.058;27.986;2023-07-13T05:58:43;10.50;;;7.90;;
32826;SDS011;51059;42.058;27.986;2023-07-13T06:01:10;13.25;;;7.55;;
32826;SDS011;51059;42.058;27.986;2023-07-13T06:03:36;9.43;;;8.32;;
32826;SDS011;51059;42.058;27.986;2023-07-13T06:06:04;8.77;;;7.90;;
32826;SDS011;51059;42.058;27.986;2023-07-13T06:08:30;10.93;;;8.07;;
32826;SDS011;51059;42.058;27.986;2023-07-13T06:11:06;12.60;;;8.90;;
32826;SDS011;51059;42.058;27.986;2023-07-13T06:13:32;9.45;;;8.45;;
32826;SDS011;51059;42.058;27.986;2023-07-13T06:15:58;11.93;;;8.35;;
32826;SDS011;51059;42.058;27.986;2023-07-13T06:18:24;15.68;;;9.02;;
32826;SDS011;51059;42.058;27.986;2023-07-13T06:20:50;12.02;;;8.95;;
32826;SDS011;51059;42.058;27.986;2023-07-13T06:23:15;10.55;;;8.50;;
32826;SDS011;51059;42.058;27.986;2023-07-13T06:25:47;9.88;;;8.85;;
32826;SDS011;51059;42.058;27.986;2023-07-13T06:28:12;12.80;;;8.82;;
32826;SDS011;51059;42.058;27.986;2023-07-13T06:30:38;12.60;;;7.97;;
32826;SDS011;51059;42.058;27.986;2023-07-13T06:33:05;11.35;;;9.00;;
32826;SDS011;51059;42.058;27.986;2023-07-13T06:35:31;11.65;;;8.02;;
32826;SDS011;51059;42.058;27.986;2023-07-13T06:37:57;14.95;;;8.20;;
32826;SDS011;51059;42.058;27.986;2023-07-13T06:40:23;9.32;;;8.45;;
32826;SDS011;51059;42.058;27.986;2023-07-13T06:42:48;11.80;;;9.07;;
32826;SDS011;51059;42.058;27.986;2023-07-13T06:45:14;11.43;;;8.30;;
32826;SDS011;51059;42.058;27.986;2023-07-13T06:47:40;10.57;;;9.07;;
32826;SDS011;51059;42.058;27.986;2023-07-13T06:50:06;14.55;;;9.90;;
32826;SDS011;51059;42.058;27.986;2023-07-13T06:52:31;13.32;;;9.60;;
32826;SDS011;51059;42.058;27.986;2023-07-13T06:54:58;11.23;;;9.35;;
32826;SDS011;51059;42.058;27.986;2023-07-13T06:57:23;10.55;;;9.52;;
32826;SDS011;51059;42.058;27.986;2023-07-13T06:59:49;16.83;;;9.43;;
32826;SDS011;51059;42.058;27.986;2023-07-13T07:02:15;12.70;;;9.57;;
32826;SDS011;51059;42.058;27.986;2023-07-13T07:04:41;10.27;;;9.38;;
32826;SDS011;51059;42.058;27.986;2023-07-13T07:07:07;11.80;;;9.98;;
32826;SDS011;51059;42.058;27.986;2023-07-13T07:09:32;12.02;;;10.45;;
32826;SDS011;51059;42.058;27.986;2023-07-13T07:11:58;12.50;;;9.88;;
32826;SDS011;51059;42.058;27.986;2023-07-13T07:14:23;11.52;;;9.40;;
32826;SDS011;51059;42.058;27.986;2023-07-13T07:16:49;15.70;;;10.20;;
32826;SDS011;51059;42.058;27.986;2023-07-13T07:19:15;15.68;;;10.35;;
32826;SDS011;51059;42.058;27.986;2023-07-13T07:21:41;11.45;;;10.35;;
32826;SDS011;51059;42.058;27.986;2023-07-13T07:24:07;12.15;;;10.50;;
32826;SDS011;51059;42.058;27.986;2023-07-13T07:26:33;15.40;;;11.38;;
32826;SDS011;51059;42.058;27.986;2023-07-13T07:28:59;22.80;;;11.63;;
32826;SDS011;51059;42.058;27.986;2023-07-13T07:31:24;15.55;;;12.13;;
32826;SDS011;51059;42.058;27.986;2023-07-13T07:33:50;15.38;;;11.15;;
32826;SDS011;51059;42.058;27.986;2023-07-13T07:36:16;13.18;;;11.80;;
32826;SDS011;51059;42.058;27.986;2023-07-13T07:38:42;13.77;;;12.25;;
32826;SDS011;51059;42.058;27.986;2023-07-13T07:41:08;13.85;;;10.88;;
32826;SDS011;51059;42.058;27.986;2023-07-13T07:43:33;12.40;;;11.10;;
32826;SDS011;51059;42.058;27.986;2023-07-13T07:45:59;12.80;;;11.50;;
32826;SDS011;51059;42.058;27.986;2023-07-13T07:48:25;12.85;;;11.43;;
32826;SDS011;51059;42.058;27.986;2023-07-13T07:50:51;12.85;;;11.63;;
32826;SDS011;51059;42.058;27.986;2023-07-13T07:53:17;17.83;;;12.00;;
32826;SDS011;51059;42.058;27.986;2023-07-13T07:55:42;12.68;;;11.23;;
32826;SDS011;51059;42.058;27.986;2023-07-13T07:58:08;16.42;;;11.68;;
32826;SDS011;51059;42.058;27.986;2023-07-13T08:00:35;14.98;;;11.35;;
32826;SDS011;51059;42.058;27.986;2023-07-13T08:03:01;13.05;;;11.75;;
32826;SDS011;51059;42.058;27.986;2023-07-13T08:05:27;13.75;;;11.70;;
32826;SDS011;51059;42.058;27.986;2023-07-13T08:07:53;16.13;;;12.13;;
32826;SDS011;51059;42.058;27.986;2023-07-13T08:10:19;17.80;;;12.55;;
32826;SDS011;51059;42.058;27.986;2023-07-13T08:12:45;18.40;;;12.38;;
32826;SDS011;51059;42.058;27.986;2023-07-13T08:15:12;15.02;;;11.93;;
32826;SDS011;51059;42.058;27.986;2023-07-13T08:17:39;18.35;;;11.95;;
32826;SDS011;51059;42.058;27.986;2023-07-13T08:20:05;12.55;;;11.30;;
32826;SDS011;51059;42.058;27.986;2023-07-13T08:22:31;17.90;;;13.35;;
32826;SDS011;51059;42.058;27.986;2023-07-13T08:24:58;17.55;;;12.68;;
32826;SDS011;51059;42.058;27.986;2023-07-13T08:27:25;14.00;;;12.50;;
32826;SDS011;51059;42.058;27.986;2023-07-13T08:29:51;13.02;;;11.80;;
32826;SDS011;51059;42.058;27.986;2023-07-13T08:32:16;14.70;;;12.40;;
32826;SDS011;51059;42.058;27.986;2023-07-13T08:34:42;15.63;;;12.27;;
32826;SDS011;51059;42.058;27.986;2023-07-13T08:37:08;14.23;;;12.82;;
32826;SDS011;51059;42.058;27.986;2023-07-13T08:39:34;17.80;;;13.48;;
32826;SDS011;51059;42.058;27.986;2023-07-13T08:42:44;15.10;;;13.60;;
32826;SDS011;51059;42.058;27.986;2023-07-13T08:47:22;19.38;;;13.45;;
32826;SDS011;51059;42.058;27.986;2023-07-13T08:49:49;14.10;;;12.52;;
32826;SDS011;51059;42.058;27.986;2023-07-13T08:55:02;17.67;;;13.75;;
32826;SDS011;51059;42.058;27.986;2023-07-13T08:57:31;19.63;;;14.70;;
32826;SDS011;51059;42.058;27.986;2023-07-13T08:59:58;20.75;;;15.70;;
32826;SDS011;51059;42.058;27.986;2023-07-13T09:02:35;16.98;;;14.95;;
32826;SDS011;51059;42.058;27.986;2023-07-13T09:05:13;19.77;;;15.23;;
32826;SDS011;51059;42.058;27.986;2023-07-13T09:12:45;16.90;;;14.43;;
32826;SDS011;51059;42.058;27.986;2023-07-13T09:15:21;17.13;;;14.65;;
32826;SDS011;51059;42.058;27.986;2023-07-13T09:17:49;21.52;;;13.80;;
32826;SDS011;51059;42.058;27.986;2023-07-13T09:20:26;18.08;;;12.77;;
32826;SDS011;51059;42.058;27.986;2023-07-13T09:22:53;15.52;;;13.88;;
32826;SDS011;51059;42.058;27.986;2023-07-13T09:28:19;20.27;;;14.68;;
32826;SDS011;51059;42.058;27.986;2023-07-13T09:30:45;21.35;;;14.85;;
32826;SDS011;51059;42.058;27.986;2023-07-13T09:33:11;17.40;;;15.00;;
32826;SDS011;51059;42.058;27.986;2023-07-13T09:35:38;18.58;;;13.45;;
32826;SDS011;51059;42.058;27.986;2023-07-13T09:38:10;16.60;;;13.23;;
32826;SDS011;51059;42.058;27.986;2023-07-13T09:41:00;16.05;;;14.27;;
32826;SDS011;51059;42.058;27.986;2023-07-13T09:43:26;18.20;;;14.90;;
32826;SDS011;51059;42.058;27.986;2023-07-13T09:45:54;22.35;;;15.35;;
32826;SDS011;51059;42.058;27.986;2023-07-13T09:48:20;20.40;;;16.48;;
32826;SDS011;51059;42.058;27.986;2023-07-13T09:50:46;20.85;;;17.02;;
32826;SDS011;51059;42.058;27.986;2023-07-13T09:53:13;21.42;;;18.20;;
32826;SDS011;51059;42.058;27.986;2023-07-13T09:55:39;20.35;;;18.45;;
32826;SDS011;51059;42.058;27.986;2023-07-13T10:00:37;24.05;;;18.25;;
32826;SDS011;51059;42.058;27.986;2023-07-13T10:03:16;19.80;;;17.70;;
32826;SDS011;51059;42.058;27.986;2023-07-13T10:05:43;22.42;;;18.70;;
32826;SDS011;51059;42.058;27.986;2023-07-13T10:08:23;23.58;;;18.92;;
32826;SDS011;51059;42.058;27.986;2023-07-13T10:11:10;21.02;;;18.48;;
32826;SDS011;51059;42.058;27.986;2023-07-13T10:13:40;29.95;;;19.70;;
32826;SDS011;51059;42.058;27.986;2023-07-13T10:16:09;20.80;;;18.80;;
32826;SDS011;51059;42.058;27.986;2023-07-13T10:18:49;20.25;;;18.17;;
32826;SDS011;51059;42.058;27.986;2023-07-13T10:23:40;19.73;;;17.58;;
32826;SDS011;51059;42.058;27.986;2023-07-13T10:26:12;20.25;;;17.65;;
32826;SDS011;51059;42.058;27.986;2023-07-13T10:28:40;20.90;;;18.00;;
32826;SDS011;51059;42.058;27.986;2023-07-13T10:31:09;26.05;;;18.10;;
32826;SDS011;51059;42.058;27.986;2023-07-13T10:33:36;23.35;;;18.10;;
32826;SDS011;51059;42.058;27.986;2023-07-13T10:36:13;23.75;;;18.73;;
32826;SDS011;51059;42.058;27.986;2023-07-13T10:38:39;24.20;;;21.27;;
32826;SDS011;51059;42.058;27.986;2023-07-13T10:41:10;30.77;;;22.15;;
32826;SDS011;51059;42.058;27.986;2023-07-13T10:43:43;26.73;;;22.85;;
32826;SDS011;51059;42.058;27.986;2023-07-13T10:46:13;25.02;;;22.40;;
32826;SDS011;51059;42.058;27.986;2023-07-13T10:48:42;27.30;;;22.30;;
32826;SDS011;51059;42.058;27.986;2023-07-13T10:51:09;23.83;;;21.27;;
32826;SDS011;51059;42.058;27.986;2023-07-13T10:53:36;26.08;;;20.27;;
32826;SDS011;51059;42.058;27.986;2023-07-13T10:58:37;23.00;;;18.48;;
32826;SDS011;51059;42.058;27.986;2023-07-13T11:01:06;24.05;;;20.35;;
32826;SDS011;51059;42.058;27.986;2023-07-13T11:03:38;29.77;;;20.27;;
32826;SDS011;51059;42.058;27.986;2023-07-13T11:06:13;21.95;;;19.65;;
32826;SDS011;51059;42.058;27.986;2023-07-13T11:18:49;27.60;;;24.02;;
32826;SDS011;51059;42.058;27.986;2023-07-13T11:21:16;26.48;;;22.83;;
32826;SDS011;51059;42.058;27.986;2023-07-13T11:23:43;27.17;;;24.33;;
32826;SDS011;51059;42.058;27.986;2023-07-13T11:28:54;29.60;;;25.33;;
32826;SDS011;51059;42.058;27.986;2023-07-13T11:31:20;26.15;;;23.52;;
32826;SDS011;51059;42.058;27.986;2023-07-13T11:33:52;27.70;;;24.70;;
32826;SDS011;51059;42.058;27.986;2023-07-13T11:36:19;27.30;;;24.77;;
32826;SDS011;51059;42.058;27.986;2023-07-13T11:39:09;29.10;;;26.05;;
32826;SDS011;51059;42.058;27.986;2023-07-13T11:41:37;26.92;;;24.23;;
32826;SDS011;51059;42.058;27.986;2023-07-13T11:44:22;27.83;;;24.70;;
32826;SDS011;51059;42.058;27.986;2023-07-13T11:46:49;29.85;;;26.40;;
32826;SDS011;51059;42.058;27.986;2023-07-13T11:49:16;28.13;;;25.38;;
32826;SDS011;51059;42.058;27.986;2023-07-13T11:51:44;27.92;;;24.95;;
32826;SDS011;51059;42.058;27.986;2023-07-13T11:56:55;29.20;;;25.05;;
32826;SDS011;51059;42.058;27.986;2023-07-13T11:59:24;27.85;;;25.23;;
32826;SDS011;51059;42.058;27.986;2023-07-13T12:01:53;27.88;;;25.15;;
32826;SDS011;51059;42.058;27.986;2023-07-13T12:04:29;27.85;;;25.00;;
32826;SDS011;51059;42.058;27.986;2023-07-13T12:07:14;28.40;;;25.48;;
32826;SDS011;51059;42.058;27.986;2023-07-13T12:09:41;28.17;;;25.40;;
32826;SDS011;51059;42.058;27.986;2023-07-13T12:12:10;29.40;;;26.15;;
32826;SDS011;51059;42.058;27.986;2023-07-13T12:14:36;32.25;;;26.38;;
32826;SDS011;51059;42.058;27.986;2023-07-13T12:17:04;28.58;;;24.63;;
32826;SDS011;51059;42.058;27.986;2023-07-13T12:19:34;27.73;;;24.88;;
32826;SDS011;51059;42.058;27.986;2023-07-13T12:22:00;29.23;;;26.08;;
32826;SDS011;51059;42.058;27.986;2023-07-13T12:24:27;29.27;;;26.20;;
32826;SDS011;51059;42.058;27.986;2023-07-13T12:29:20;30.58;;;27.23;;
32826;SDS011;51059;42.058;27.986;2023-07-13T12:31:46;30.63;;;27.27;;
32826;SDS011;51059;42.058;27.986;2023-07-13T12:34:13;30.35;;;27.08;;
32826;SDS011;51059;42.058;27.986;2023-07-13T12:36:46;31.48;;;27.98;;
32826;SDS011;51059;42.058;27.986;2023-07-13T12:39:48;30.52;;;27.40;;
32826;SDS011;51059;42.058;27.986;2023-07-13T12:42:14;34.05;;;30.35;;
32826;SDS011;51059;42.058;27.986;2023-07-13T12:44:42;34.05;;;30.45;;
32826;SDS011;51059;42.058;27.986;2023-07-13T12:47:12;33.55;;;30.08;;
32826;SDS011;51059;42.058;27.986;2023-07-13T12:49:40;33.10;;;30.00;;
32826;SDS011;51059;42.058;27.986;2023-07-13T12:52:14;36.30;;;32.17;;
32826;SDS011;51059;42.058;27.986;2023-07-13T12:54:40;35.95;;;31.50;;
32826;SDS011;51059;42.058;27.986;2023-07-13T12:57:08;36.92;;;33.03;;
32826;SDS011;51059;42.058;27.986;2023-07-13T12:59:39;37.70;;;33.80;;
32826;SDS011;51059;42.058;27.986;2023-07-13T13:02:16;37.38;;;33.55;;
32826;SDS011;51059;42.058;27.986;2023-07-13T13:04:48;37.38;;;33.58;;
32826;SDS011;51059;42.058;27.986;2023-07-13T13:07:13;38.33;;;33.90;;
32826;SDS011;51059;42.058;27.986;2023-07-13T13:09:40;38.78;;;34.80;;
32826;SDS011;51059;42.058;27.986;2023-07-13T13:12:06;39.20;;;35.08;;
32826;SDS011;51059;42.058;27.986;2023-07-13T13:14:32;38.83;;;34.88;;
32826;SDS011;51059;42.058;27.986;2023-07-13T13:16:57;38.78;;;35.08;;
32826;SDS011;51059;42.058;27.986;2023-07-13T13:19:25;33.17;;;29.92;;
32826;SDS011;51059;42.058;27.986;2023-07-13T13:21:52;33.67;;;30.15;;
32826;SDS011;51059;42.058;27.986;2023-07-13T13:24:20;33.28;;;29.15;;
32826;SDS011;51059;42.058;27.986;2023-07-13T13:26:46;31.88;;;28.48;;
32826;SDS011;51059;42.058;27.986;2023-07-13T13:29:16;33.35;;;30.02;;
32826;SDS011;51059;42.058;27.986;2023-07-13T13:31:42;35.40;;;31.38;;
32826;SDS011;51059;42.058;27.986;2023-07-13T13:34:12;47.63;;;32.65;;
32826;SDS011;51059;42.058;27.986;2023-07-13T13:36:39;37.50;;;33.35;;
32826;SDS011;51059;42.058;27.986;2023-07-13T13:39:10;41.88;;;35.47;;
32826;SDS011;51059;42.058;27.986;2023-07-13T13:41:39;40.10;;;35.88;;
32826;SDS011;51059;42.058;27.986;2023-07-13T13:44:08;44.78;;;36.55;;
32826;SDS011;51059;42.058;27.986;2023-07-13T13:46:34;39.80;;;35.58;;
32826;SDS011;51059;42.058;27.986;2023-07-13T13:48:59;42.90;;;37.83;;
32826;SDS011;51059;42.058;27.986;2023-07-13T13:51:24;40.05;;;35.72;;
32826;SDS011;51059;42.058;27.986;2023-07-13T13:53:51;41.20;;;36.85;;
32826;SDS011;51059;42.058;27.986;2023-07-13T13:56:18;44.30;;;39.72;;
32826;SDS011;51059;42.058;27.986;2023-07-13T13:58:44;41.67;;;37.25;;
32826;SDS011;51059;42.058;27.986;2023-07-13T14:01:13;41.88;;;37.10;;
32826;SDS011;51059;42.058;27.986;2023-07-13T14:03:39;39.65;;;35.35;;
32826;SDS011;51059;42.058;27.986;2023-07-13T14:06:05;41.17;;;34.97;;
32826;SDS011;51059;42.058;27.986;2023-07-13T14:08:31;39.45;;;33.15;;
32826;SDS011;51059;42.058;27.986;2023-07-13T14:10:57;38.28;;;33.15;;
32826;SDS011;51059;42.058;27.986;2023-07-13T14:13:27;36.67;;;31.05;;
32826;SDS011;51059;42.058;27.986;2023-07-13T14:15:54;34.65;;;29.33;;
32826;SDS011;51059;42.058;27.986;2023-07-13T14:18:19;34.75;;;30.15;;
32826;SDS011;51059;42.058;27.986;2023-07-13T14:20:45;37.88;;;29.67;;
32826;SDS011;51059;42.058;27.986;2023-07-13T14:23:14;33.83;;;28.75;;
32826;SDS011;51059;42.058;27.986;2023-07-13T14:25:41;31.20;;;27.52;;
32826;SDS011;51059;42.058;27.986;2023-07-13T14:28:20;35.70;;;28.02;;
32826;SDS011;51059;42.058;27.986;2023-07-13T14:30:47;35.22;;;28.52;;
32826;SDS011;51059;42.058;27.986;2023-07-13T14:33:13;41.55;;;27.73;;
32826;SDS011;51059;42.058;27.986;2023-07-13T14:35:39;33.30;;;26.58;;
32826;SDS011;51059;42.058;27.986;2023-07-13T14:38:09;34.85;;;26.58;;
32826;SDS011;51059;42.058;27.986;2023-07-13T14:40:36;29.48;;;25.70;;
32826;SDS011;51059;42.058;27.986;2023-07-13T14:43:04;31.00;;;25.15;;
32826;SDS011;51059;42.058;27.986;2023-07-13T14:45:29;31.98;;;23.77;;
32826;SDS011;51059;42.058;27.986;2023-07-13T14:47:55;32.08;;;24.05;;
32826;SDS011;51059;42.058;27.986;2023-07-13T14:50:25;28.20;;;23.98;;
32826;SDS011;51059;42.058;27.986;2023-07-13T14:52:52;31.50;;;23.40;;
32826;SDS011;51059;42.058;27.986;2023-07-13T14:55:19;33.08;;;22.55;;
32826;SDS011;51059;42.058;27.986;2023-07-13T14:57:46;26.27;;;22.40;;